createdAt,value
2023-03-20T00:00:19.613Z,115.98
2023-03-20T00:01:04.990Z,114.99
2023-03-20T00:01:49.885Z,114.00
2023-03-20T00:02:34.939Z,113.01
2023-03-20T00:03:19.577Z,113.01
2023-03-20T00:04:05.209Z,108.05
2023-03-20T00:04:50.372Z,108.05
2023-03-20T00:05:35.293Z,110.03
2023-03-20T00:06:20.316Z,109.76
2023-03-20T00:07:05.372Z,111.02
2023-03-20T00:07:50.026Z,111.02
2023-03-20T00:08:35.139Z,112.02
2023-03-20T00:09:20.550Z,112.02
2023-03-20T00:10:05.596Z,113.01
2023-03-20T00:10:50.515Z,112.73
2023-03-20T00:11:35.429Z,112.02
2023-03-20T00:12:20.665Z,111.74
2023-03-20T00:13:05.624Z,112.02
2023-03-20T00:13:50.481Z,111.02
2023-03-20T00:14:35.465Z,111.02
2023-03-20T00:15:21.145Z,111.02
2023-03-20T00:16:06.597Z,110.03
2023-03-20T00:16:50.618Z,110.03
2023-03-20T00:17:35.651Z,111.02
2023-03-20T00:18:21.017Z,112.02
2023-03-20T00:19:05.908Z,109.04
2023-03-20T00:19:51.409Z,110.03
2023-03-20T00:20:36.594Z,110.03
2023-03-20T00:21:21.186Z,109.04
2023-03-20T00:22:06.088Z,109.04
2023-03-20T00:22:51.902Z,110.03
2023-03-20T00:23:36.108Z,110.03
2023-03-20T00:24:21.365Z,110.03
2023-03-20T00:25:06.468Z,110.03
2023-03-20T00:25:51.370Z,110.03
2023-03-20T00:26:36.650Z,110.03
2023-03-20T00:27:21.394Z,113.72
2023-03-20T00:28:06.558Z,113.72
2023-03-20T00:28:51.500Z,108.05
2023-03-20T00:29:36.765Z,109.76
2023-03-20T00:30:22.583Z,110.03
2023-03-20T00:31:06.824Z,112.02
2023-03-20T00:31:52.130Z,110.03
2023-03-20T00:32:37.008Z,112.02
2023-03-20T00:33:21.999Z,111.02
2023-03-20T00:34:07.020Z,109.04
2023-03-20T00:34:51.739Z,110.03
2023-03-20T00:35:37.404Z,112.02
2023-03-20T00:36:22.337Z,109.04
2023-03-20T00:37:07.313Z,110.03
2023-03-20T00:37:52.931Z,110.03
2023-03-20T00:38:37.541Z,112.02
2023-03-20T00:39:22.292Z,112.02
2023-03-20T00:40:07.370Z,113.01
2023-03-20T00:40:52.301Z,113.01
2023-03-20T00:41:37.257Z,111.02
2023-03-20T00:42:22.537Z,109.04
2023-03-20T00:43:07.571Z,109.04
2023-03-20T00:43:52.825Z,109.04
2023-03-20T00:44:38.965Z,107.06
2023-03-20T00:45:23.183Z,107.06
2023-03-20T00:46:07.687Z,108.05
2023-03-20T00:46:52.799Z,109.76
2023-03-20T00:47:38.021Z,109.04
2023-03-20T00:48:23.022Z,109.04
2023-03-20T00:49:07.827Z,110.03
2023-03-20T00:49:53.352Z,107.06
2023-03-20T00:50:38.249Z,107.06
2023-03-20T00:51:23.242Z,108.05
2023-03-20T00:52:08.342Z,103.09
2023-03-20T00:52:53.659Z,109.04
2023-03-20T00:53:38.270Z,110.03
2023-03-20T00:54:23.416Z,111.02
2023-03-20T00:55:08.162Z,111.02
2023-03-20T00:55:53.668Z,112.02
2023-03-20T00:56:38.497Z,109.04
2023-03-20T00:57:23.445Z,110.03
2023-03-20T00:58:08.246Z,107.06
2023-03-20T00:58:53.648Z,106.07
2023-03-20T00:59:38.829Z,105.08
2023-03-20T01:00:23.564Z,104.09
2023-03-20T01:01:09.171Z,102.84
2023-03-20T01:01:53.954Z,103.09
2023-03-20T01:02:38.947Z,97.90
2023-03-20T01:03:23.784Z,100.12
2023-03-20T01:04:09.253Z,101.11
2023-03-20T01:04:54.215Z,100.12
2023-03-20T01:05:39.159Z,98.14
2023-03-20T01:06:23.951Z,98.14
2023-03-20T01:07:09.169Z,96.15
2023-03-20T01:07:54.129Z,96.15
2023-03-20T01:08:39.329Z,95.16
2023-03-20T01:09:24.683Z,95.16
2023-03-20T01:10:10.443Z,95.16
2023-03-20T01:10:54.810Z,96.15
2023-03-20T01:11:39.573Z,94.17
2023-03-20T01:12:24.266Z,91.20
2023-03-20T01:13:09.409Z,92.19
2023-03-20T01:13:54.746Z,92.19
2023-03-20T01:14:39.691Z,100.12
2023-03-20T01:15:25.461Z,100.12
2023-03-20T01:16:09.856Z,97.15
2023-03-20T01:16:55.224Z,97.15
2023-03-20T01:17:39.856Z,99.13
2023-03-20T01:18:25.014Z,98.14
2023-03-20T01:19:10.020Z,98.14
2023-03-20T01:19:55.373Z,98.14
2023-03-20T01:20:40.534Z,98.14
2023-03-20T01:21:25.647Z,98.14
2023-03-20T01:22:10.847Z,98.14
2023-03-20T01:22:55.781Z,98.14
2023-03-20T01:23:41.250Z,98.14
2023-03-20T01:24:25.976Z,98.14
2023-03-20T01:25:11.578Z,98.14
2023-03-20T01:25:55.777Z,98.14
2023-03-20T01:26:41.502Z,98.14
2023-03-20T01:27:25.793Z,94.17
2023-03-20T01:28:10.665Z,94.93
2023-03-20T01:28:56.461Z,102.10
2023-03-20T01:29:40.760Z,98.14
2023-03-20T01:30:26.982Z,98.14
2023-03-20T01:31:11.244Z,98.14
2023-03-20T01:31:56.256Z,98.14
2023-03-20T01:32:41.218Z,98.14
2023-03-20T01:33:26.319Z,98.14
2023-03-20T01:34:11.456Z,98.14
2023-03-20T01:34:56.263Z,98.14
2023-03-20T01:35:41.854Z,98.14
2023-03-20T01:36:26.721Z,98.14
2023-03-20T01:37:11.650Z,98.14
2023-03-20T01:37:56.423Z,98.14
2023-03-20T01:38:42.527Z,98.14
2023-03-20T01:39:26.940Z,98.14
2023-03-20T01:40:11.583Z,98.14
2023-03-20T01:40:57.008Z,98.14
2023-03-20T01:41:42.196Z,98.14
2023-03-20T01:42:27.037Z,98.14
2023-03-20T01:43:11.873Z,98.14
2023-03-20T01:43:56.844Z,98.14
2023-03-20T01:44:42.434Z,98.14
2023-03-20T01:45:27.899Z,98.14
2023-03-20T01:46:12.198Z,98.14
2023-03-20T01:46:57.314Z,98.14
2023-03-20T01:47:42.368Z,98.14
2023-03-20T01:48:27.037Z,99.13
2023-03-20T01:49:12.019Z,99.13
2023-03-20T01:49:56.867Z,97.15
2023-03-20T01:50:42.483Z,97.15
2023-03-20T01:51:27.560Z,97.15
2023-03-20T01:52:12.511Z,97.15
2023-03-20T01:52:57.479Z,97.15
2023-03-20T01:53:42.465Z,97.15
2023-03-20T01:54:28.170Z,97.15
2023-03-20T01:55:13.400Z,97.15
2023-03-20T01:55:57.529Z,97.15
2023-03-20T01:56:42.801Z,97.15
2023-03-20T01:57:27.707Z,97.15
2023-03-20T01:58:12.560Z,97.15
2023-03-20T01:58:57.658Z,97.15
2023-03-20T01:59:43.033Z,97.15
2023-03-20T02:00:27.970Z,97.15
2023-03-20T02:01:12.529Z,97.15
2023-03-20T02:01:58.014Z,97.15
2023-03-20T02:02:42.954Z,97.15
2023-03-20T02:03:27.944Z,97.15
2023-03-20T02:04:12.645Z,97.15
2023-03-20T02:04:58.573Z,97.15
2023-03-20T02:05:43.304Z,97.15
2023-03-20T02:06:29.854Z,97.15
2023-03-20T02:07:13.090Z,97.15
2023-03-20T02:07:58.535Z,97.15
2023-03-20T02:08:43.743Z,97.15
2023-03-20T02:09:28.751Z,97.15
2023-03-20T02:10:13.634Z,97.15
2023-03-20T02:10:58.662Z,97.15
2023-03-20T02:11:44.083Z,97.15
2023-03-20T02:12:28.766Z,97.15
2023-03-20T02:13:13.660Z,97.15
2023-03-20T02:13:58.880Z,97.15
2023-03-20T02:14:43.974Z,97.15
2023-03-20T02:15:29.210Z,97.15
2023-03-20T02:16:13.694Z,97.15
2023-03-20T02:16:59.169Z,97.15
2023-03-20T02:17:43.959Z,97.15
2023-03-20T02:18:28.911Z,97.15
2023-03-20T02:19:13.971Z,97.15
2023-03-20T02:19:59.123Z,97.15
2023-03-20T02:20:44.345Z,97.15
2023-03-20T02:21:29.649Z,97.15
2023-03-20T02:22:16.047Z,97.15
2023-03-20T02:22:59.194Z,97.15
2023-03-20T02:23:44.509Z,97.15
2023-03-20T02:24:29.127Z,82.28
2023-03-20T02:25:14.672Z,82.28
2023-03-20T02:25:59.644Z,82.28
2023-03-20T02:26:44.757Z,82.28
2023-03-20T02:27:29.903Z,82.28
2023-03-20T02:28:14.973Z,82.28
2023-03-20T02:29:00.018Z,82.28
2023-03-20T02:29:45.336Z,82.28
2023-03-20T02:30:30.852Z,82.28
2023-03-20T02:31:15.199Z,82.28
2023-03-20T02:32:00.254Z,82.28
2023-03-20T02:32:45.216Z,82.28
2023-03-20T02:33:30.349Z,82.28
2023-03-20T02:34:15.397Z,82.28
2023-03-20T02:35:00.548Z,82.28
2023-03-20T02:35:45.749Z,82.28
2023-03-20T02:36:30.672Z,82.28
2023-03-20T02:37:15.589Z,82.28
2023-03-20T02:38:00.741Z,82.28
2023-03-20T02:38:45.841Z,82.28
2023-03-20T02:39:30.984Z,82.28
2023-03-20T02:40:20.758Z,82.28
2023-03-20T02:41:00.947Z,82.28
2023-03-20T02:41:46.298Z,82.28
2023-03-20T02:42:33.660Z,82.28
2023-03-20T02:43:16.325Z,82.28
2023-03-20T02:44:01.240Z,82.28
2023-03-20T02:44:46.196Z,82.28
2023-03-20T02:45:31.709Z,82.28
2023-03-20T02:46:16.114Z,82.28
2023-03-20T02:47:01.268Z,82.28
2023-03-20T02:47:47.162Z,82.28
2023-03-20T02:48:31.390Z,82.28
2023-03-20T02:49:16.525Z,82.28
2023-03-20T02:50:01.489Z,82.28
2023-03-20T02:50:47.033Z,82.28
2023-03-20T02:51:31.747Z,82.28
2023-03-20T02:52:16.827Z,82.28
2023-03-20T02:53:01.852Z,82.28
2023-03-20T02:53:46.666Z,82.28
2023-03-20T02:54:31.836Z,82.28
2023-03-20T02:55:16.715Z,82.28
2023-03-20T02:56:01.966Z,82.28
2023-03-20T02:56:46.782Z,82.28
2023-03-20T02:57:32.000Z,82.28
2023-03-20T02:58:17.210Z,82.28
2023-03-20T02:59:02.396Z,82.28
2023-03-20T02:59:47.216Z,82.28
2023-03-20T03:00:32.201Z,82.28
2023-03-20T03:01:17.265Z,82.28
2023-03-20T03:02:02.284Z,82.28
2023-03-20T03:02:47.158Z,82.28
2023-03-20T03:03:32.503Z,82.28
2023-03-20T03:04:17.820Z,82.28
2023-03-20T03:05:02.875Z,82.28
2023-03-20T03:05:47.566Z,82.28
2023-03-20T03:06:32.280Z,82.28
2023-03-20T03:07:17.575Z,82.28
2023-03-20T03:08:02.805Z,82.28
2023-03-20T03:08:48.206Z,82.28
2023-03-20T03:09:32.754Z,82.28
2023-03-20T03:10:17.861Z,82.28
2023-03-20T03:11:02.998Z,82.28
2023-03-20T03:11:47.827Z,82.28
2023-03-20T03:12:32.983Z,82.28
2023-03-20T03:13:18.342Z,82.28
2023-03-20T03:14:03.390Z,82.28
2023-03-20T03:14:48.403Z,82.28
2023-03-20T03:15:33.888Z,82.28
2023-03-20T03:16:18.491Z,82.28
2023-03-20T03:17:03.534Z,82.28
2023-03-20T03:17:48.681Z,82.28
2023-03-20T03:18:33.392Z,82.28
2023-03-20T03:19:18.682Z,82.28
2023-03-20T03:20:04.007Z,82.28
2023-03-20T03:20:48.695Z,82.28
2023-03-20T03:21:33.932Z,82.28
2023-03-20T03:22:18.809Z,82.28
2023-03-20T03:23:04.287Z,82.28
2023-03-20T03:23:48.978Z,82.28
2023-03-20T03:24:40.736Z,82.28
2023-03-20T03:25:19.632Z,82.28
2023-03-20T03:26:04.100Z,82.28
2023-03-20T03:26:49.148Z,82.28
2023-03-20T03:27:34.328Z,82.28
2023-03-20T03:28:19.155Z,82.28
2023-03-20T03:29:04.413Z,82.28
2023-03-20T03:29:49.311Z,82.28
2023-03-20T03:30:35.160Z,82.28
2023-03-20T03:31:19.300Z,82.28
2023-03-20T03:32:04.445Z,82.28
2023-03-20T03:32:49.573Z,82.28
2023-03-20T03:33:34.566Z,82.28
2023-03-20T03:34:19.617Z,82.28
2023-03-20T03:35:04.855Z,82.28
2023-03-20T03:35:50.017Z,82.28
2023-03-20T03:36:34.992Z,82.28
2023-03-20T03:37:19.789Z,82.28
2023-03-20T03:38:04.988Z,82.28
2023-03-20T03:38:49.945Z,82.28
2023-03-20T03:39:35.111Z,82.28
2023-03-20T03:40:20.587Z,82.28
2023-03-20T03:41:05.287Z,82.28
2023-03-20T03:41:50.312Z,82.28
2023-03-20T03:42:35.246Z,82.28
2023-03-20T03:43:20.281Z,82.28
2023-03-20T03:44:05.280Z,82.28
2023-03-20T03:44:50.480Z,82.28
2023-03-20T03:45:35.900Z,82.28
2023-03-20T03:46:20.555Z,82.28
2023-03-20T03:47:05.330Z,82.28
2023-03-20T03:47:50.831Z,82.28
2023-03-20T03:48:35.828Z,82.28
2023-03-20T03:49:20.944Z,82.28
2023-03-20T03:50:05.892Z,82.28
2023-03-20T03:50:50.512Z,82.28
2023-03-20T03:51:35.807Z,82.28
2023-03-20T03:52:20.859Z,82.28
2023-03-20T03:53:06.101Z,82.28
2023-03-20T03:53:51.212Z,82.28
2023-03-20T03:54:36.049Z,82.28
2023-03-20T03:55:21.478Z,82.28
2023-03-20T03:56:06.497Z,82.28
2023-03-20T03:56:51.306Z,82.28
2023-03-20T03:57:36.606Z,82.28
2023-03-20T03:58:21.617Z,82.28
2023-03-20T03:59:06.672Z,82.28
2023-03-20T03:59:51.669Z,82.28
2023-03-20T04:00:36.758Z,82.28
2023-03-20T04:01:21.652Z,82.28
2023-03-20T04:02:06.894Z,82.28
2023-03-20T04:02:51.646Z,82.28
2023-03-20T04:03:36.922Z,82.28
2023-03-20T04:04:21.688Z,82.28
2023-03-20T04:05:07.067Z,82.28
2023-03-20T04:05:51.877Z,82.28
2023-03-20T04:06:37.138Z,82.28
2023-03-20T04:07:21.910Z,82.28
2023-03-20T04:08:07.271Z,82.28
2023-03-20T04:08:51.995Z,82.28
2023-03-20T04:09:36.857Z,82.28
2023-03-20T04:10:22.720Z,82.28
2023-03-20T04:11:07.360Z,82.28
2023-03-20T04:11:52.746Z,82.28
2023-03-20T04:12:37.441Z,82.28
2023-03-20T04:13:22.464Z,82.28
2023-03-20T04:14:07.296Z,82.28
2023-03-20T04:14:52.449Z,82.28
2023-03-20T04:15:37.608Z,82.28
2023-03-20T04:16:22.392Z,82.28
2023-03-20T04:17:08.010Z,82.28
2023-03-20T04:17:52.380Z,82.28
2023-03-20T04:18:37.837Z,82.28
2023-03-20T04:19:22.651Z,82.28
2023-03-20T04:20:07.791Z,82.28
2023-03-20T04:20:53.109Z,82.28
2023-03-20T04:21:38.579Z,82.28
2023-03-20T04:22:23.119Z,82.28
2023-03-20T04:23:07.772Z,82.28
2023-03-20T04:23:53.138Z,82.28
2023-03-20T04:24:37.831Z,82.28
2023-03-20T04:25:23.741Z,82.28
2023-03-20T04:26:08.705Z,82.28
2023-03-20T04:26:53.453Z,82.28
2023-03-20T04:27:38.458Z,82.28
2023-03-20T04:28:23.589Z,82.28
2023-03-20T04:29:08.320Z,82.28
2023-03-20T04:29:53.519Z,82.28
2023-03-20T04:30:38.637Z,82.28
2023-03-20T04:31:23.729Z,82.28
2023-03-20T04:32:08.641Z,82.28
2023-03-20T04:32:54.341Z,82.28
2023-03-20T04:33:38.796Z,82.28
2023-03-20T04:34:24.022Z,82.28
2023-03-20T04:35:08.768Z,82.28
2023-03-20T04:35:53.970Z,82.28
2023-03-20T04:36:38.986Z,82.28
2023-03-20T04:37:23.834Z,82.28
2023-03-20T04:38:09.097Z,82.28
2023-03-20T04:38:55.812Z,82.28
2023-03-20T04:39:39.363Z,82.28
2023-03-20T04:40:25.284Z,82.28
2023-03-20T04:41:09.118Z,82.28
2023-03-20T04:41:54.289Z,82.28
2023-03-20T04:42:39.238Z,82.28
2023-03-20T04:43:24.223Z,82.28
2023-03-20T04:44:09.567Z,82.28
2023-03-20T04:44:54.451Z,82.28
2023-03-20T04:45:39.705Z,82.28
2023-03-20T04:46:24.319Z,82.28
2023-03-20T04:47:09.643Z,82.28
2023-03-20T04:47:54.460Z,82.28
2023-03-20T04:48:39.988Z,82.28
2023-03-20T04:49:25.058Z,82.28
2023-03-20T04:50:09.689Z,82.28
2023-03-20T04:50:54.897Z,82.28
2023-03-20T04:51:40.123Z,82.28
2023-03-20T04:52:25.333Z,82.28
2023-03-20T04:53:10.063Z,82.28
2023-03-20T04:53:55.291Z,82.28
2023-03-20T04:54:40.472Z,82.28
2023-03-20T04:55:25.804Z,82.28
2023-03-20T04:56:10.397Z,82.28
2023-03-20T04:56:55.521Z,82.28
2023-03-20T04:57:40.675Z,82.28
2023-03-20T04:58:25.632Z,82.28
2023-03-20T04:59:11.073Z,82.28
2023-03-20T04:59:55.746Z,82.28
2023-03-20T05:00:40.923Z,82.28
2023-03-20T05:01:26.013Z,82.28
2023-03-20T05:02:10.702Z,82.28
2023-03-20T05:02:55.765Z,82.28
2023-03-20T05:03:41.776Z,82.28
2023-03-20T05:04:26.122Z,82.28
2023-03-20T05:05:11.168Z,82.28
2023-03-20T05:05:55.887Z,82.28
2023-03-20T05:06:40.719Z,82.28
2023-03-20T05:07:26.021Z,82.28
2023-03-20T05:08:11.149Z,82.28
2023-03-20T05:08:56.286Z,82.28
2023-03-20T05:09:41.652Z,82.28
2023-03-20T05:10:27.421Z,82.28
2023-03-20T05:11:11.175Z,82.28
2023-03-20T05:11:56.643Z,82.28
2023-03-20T05:12:41.390Z,82.28
2023-03-20T05:13:26.542Z,82.28
2023-03-20T05:14:11.497Z,82.28
2023-03-20T05:14:56.757Z,82.28
2023-03-20T05:15:41.902Z,82.28
2023-03-20T05:16:26.956Z,82.28
2023-03-20T05:17:11.560Z,82.28
2023-03-20T05:17:56.613Z,82.28
2023-03-20T05:18:41.912Z,82.28
2023-03-20T05:19:26.995Z,82.28
2023-03-20T05:20:11.834Z,82.28
2023-03-20T05:20:56.903Z,82.28
2023-03-20T05:21:41.955Z,82.28
2023-03-20T05:22:27.303Z,82.28
2023-03-20T05:23:12.075Z,82.28
2023-03-20T05:23:57.445Z,82.28
2023-03-20T05:24:42.283Z,82.28
2023-03-20T05:25:28.374Z,82.28
2023-03-20T05:26:12.414Z,82.28
2023-03-20T05:26:57.613Z,82.28
2023-03-20T05:27:42.837Z,82.28
2023-03-20T05:28:27.796Z,82.28
2023-03-20T05:29:12.621Z,82.28
2023-03-20T05:29:57.823Z,82.28
2023-03-20T05:30:43.182Z,82.28
2023-03-20T05:31:28.116Z,82.28
2023-03-20T05:32:12.669Z,82.28
2023-03-20T05:32:57.802Z,82.28
2023-03-20T05:33:42.761Z,82.28
2023-03-20T05:34:27.975Z,82.28
2023-03-20T05:35:13.188Z,82.28
2023-03-20T05:35:58.096Z,82.28
2023-03-20T05:36:43.185Z,82.28
2023-03-20T05:37:28.213Z,82.28
2023-03-20T05:38:13.277Z,82.28
2023-03-20T05:38:58.154Z,82.28
2023-03-20T05:39:43.100Z,82.28
2023-03-20T05:40:28.983Z,82.28
2023-03-20T05:41:13.672Z,82.28
2023-03-20T05:41:58.701Z,82.28
2023-03-20T05:42:43.746Z,82.28
2023-03-20T05:43:28.696Z,82.28
2023-03-20T05:44:13.566Z,82.28
2023-03-20T05:44:58.803Z,82.28
2023-03-20T05:45:44.232Z,82.28
2023-03-20T05:46:28.925Z,82.28
2023-03-20T05:47:13.876Z,82.28
2023-03-20T05:47:58.931Z,82.28
2023-03-20T05:48:43.870Z,82.28
2023-03-20T05:49:28.839Z,82.28
2023-03-20T05:50:14.580Z,82.28
2023-03-20T05:50:59.048Z,82.28
2023-03-20T05:51:44.104Z,82.28
2023-03-20T05:52:28.854Z,82.28
2023-03-20T05:53:14.313Z,82.28
2023-03-20T05:53:59.122Z,82.28
2023-03-20T05:54:44.181Z,82.28
2023-03-20T05:55:29.401Z,82.28
2023-03-20T05:56:14.282Z,82.28
2023-03-20T05:56:59.595Z,82.28
2023-03-20T05:57:44.358Z,82.28
2023-03-20T05:58:29.424Z,82.28
2023-03-20T05:59:14.511Z,82.28
2023-03-20T05:59:59.222Z,82.28
2023-03-20T06:00:44.415Z,82.28
2023-03-20T06:01:29.343Z,82.28
2023-03-20T06:02:14.670Z,82.28
2023-03-20T06:02:59.347Z,82.28
2023-03-20T06:03:44.771Z,82.28
2023-03-20T06:04:29.766Z,82.28
2023-03-20T06:05:14.919Z,82.28
2023-03-20T06:05:59.989Z,82.28
2023-03-20T06:06:45.082Z,82.28
2023-03-20T06:07:29.990Z,82.28
2023-03-20T06:08:15.330Z,82.28
2023-03-20T06:09:00.218Z,82.28
2023-03-20T06:09:45.310Z,82.28
2023-03-20T06:10:30.273Z,82.28
2023-03-20T06:11:15.064Z,82.28
2023-03-20T06:12:00.511Z,82.28
2023-03-20T06:12:45.385Z,82.28
2023-03-20T06:13:30.469Z,82.28
2023-03-20T06:14:15.304Z,82.28
2023-03-20T06:15:00.416Z,82.28
2023-03-20T06:15:45.656Z,82.28
2023-03-20T06:16:30.647Z,82.28
2023-03-20T06:17:15.720Z,82.28
2023-03-20T06:18:00.894Z,82.28
2023-03-20T06:18:46.237Z,82.28
2023-03-20T06:19:30.898Z,82.28
2023-03-20T06:20:15.845Z,82.28
2023-03-20T06:21:00.764Z,82.28
2023-03-20T06:21:46.487Z,82.28
2023-03-20T06:22:30.916Z,82.28
2023-03-20T06:23:17.323Z,82.28
2023-03-20T06:24:01.239Z,82.28
2023-03-20T06:24:46.681Z,82.28
2023-03-20T06:25:31.663Z,82.28
2023-03-20T06:26:16.914Z,82.28
2023-03-20T06:27:01.478Z,82.28
2023-03-20T06:27:46.519Z,82.28
2023-03-20T06:28:31.717Z,82.28
2023-03-20T06:29:16.315Z,82.28
2023-03-20T06:30:01.583Z,82.28
2023-03-20T06:30:46.955Z,82.28
2023-03-20T06:31:31.735Z,82.28
2023-03-20T06:32:17.001Z,82.28
2023-03-20T06:33:02.037Z,82.28
2023-03-20T06:33:47.580Z,82.28
2023-03-20T06:34:32.322Z,82.28
2023-03-20T06:35:17.459Z,82.28
2023-03-20T06:36:02.479Z,82.28
2023-03-20T06:36:47.702Z,82.28
2023-03-20T06:37:32.357Z,82.28
2023-03-20T06:38:17.545Z,82.28
2023-03-20T06:39:02.813Z,82.28
2023-03-20T06:39:47.824Z,82.28
2023-03-20T06:40:32.774Z,82.28
2023-03-20T06:41:31.889Z,82.28
2023-03-20T06:42:02.824Z,82.28
2023-03-20T06:42:48.156Z,82.28
2023-03-20T06:43:32.877Z,82.28
2023-03-20T06:44:17.872Z,82.28
2023-03-20T06:45:02.826Z,82.28
2023-03-20T06:45:48.169Z,82.28
2023-03-20T06:46:33.108Z,82.28
2023-03-20T06:47:17.872Z,82.28
2023-03-20T06:48:02.943Z,82.28
2023-03-20T06:48:48.548Z,82.28
2023-03-20T06:49:33.537Z,82.28
2023-03-20T06:50:19.394Z,82.28
2023-03-20T06:51:03.462Z,82.28
2023-03-20T06:51:48.517Z,82.28
2023-03-20T06:52:33.577Z,82.28
2023-03-20T06:53:18.524Z,82.28
2023-03-20T06:54:03.278Z,82.28
2023-03-20T06:54:48.881Z,82.28
2023-03-20T06:55:34.404Z,82.28
2023-03-20T06:56:18.982Z,82.28
2023-03-20T06:57:03.517Z,82.28
2023-03-20T06:57:48.805Z,82.28
2023-03-20T06:58:33.889Z,82.28
2023-03-20T06:59:19.110Z,82.28
2023-03-20T07:00:04.039Z,82.28
2023-03-20T07:00:49.094Z,82.28
2023-03-20T07:01:33.925Z,82.28
2023-03-20T07:02:18.905Z,82.28
2023-03-20T07:03:03.851Z,82.28
2023-03-20T07:03:49.013Z,82.28
2023-03-20T07:04:34.113Z,82.28
2023-03-20T07:05:19.540Z,82.28
2023-03-20T07:06:04.324Z,82.28
2023-03-20T07:06:49.356Z,82.28
2023-03-20T07:07:34.365Z,82.28
2023-03-20T07:08:19.374Z,82.28
2023-03-20T07:09:04.314Z,82.28
2023-03-20T07:09:49.396Z,82.28
2023-03-20T07:10:34.680Z,82.28
2023-03-20T07:11:19.199Z,82.28
2023-03-20T07:12:04.659Z,82.28
2023-03-20T07:12:49.711Z,82.28
2023-03-20T07:13:34.433Z,82.28
2023-03-20T07:14:19.915Z,82.28
2023-03-20T07:15:04.912Z,82.28
2023-03-20T07:16:03.339Z,82.28
2023-03-20T07:16:34.925Z,82.28
2023-03-20T07:17:20.079Z,82.28
2023-03-20T07:18:04.886Z,82.28
2023-03-20T07:18:50.120Z,82.28
2023-03-20T07:19:36.355Z,82.28
2023-03-20T07:20:20.693Z,82.28
2023-03-20T07:21:05.364Z,82.28
2023-03-20T07:21:50.352Z,82.28
2023-03-20T07:22:35.835Z,82.28
2023-03-20T07:23:20.890Z,82.28
2023-03-20T07:24:05.264Z,82.28
2023-03-20T07:24:51.019Z,82.28
2023-03-20T07:25:42.194Z,82.28
2023-03-20T07:26:21.018Z,82.28
2023-03-20T07:27:05.337Z,82.28
2023-03-20T07:27:50.852Z,82.28
2023-03-20T07:28:35.679Z,82.28
2023-03-20T07:29:20.525Z,82.28
2023-03-20T07:30:06.289Z,82.28
2023-03-20T07:30:51.009Z,82.28
2023-03-20T07:31:35.827Z,82.28
2023-03-20T07:32:21.033Z,82.28
2023-03-20T07:33:05.789Z,82.28
2023-03-20T07:33:50.991Z,82.28
2023-03-20T07:34:36.149Z,82.28
2023-03-20T07:35:21.365Z,82.28
2023-03-20T07:36:06.355Z,82.28
2023-03-20T07:36:51.192Z,82.28
2023-03-20T07:37:36.427Z,82.28
2023-03-20T07:38:21.305Z,82.28
2023-03-20T07:39:06.385Z,82.28
2023-03-20T07:39:51.320Z,82.28
2023-03-20T07:40:36.491Z,82.28
2023-03-20T07:41:21.577Z,82.28
2023-03-20T07:42:06.484Z,82.28
2023-03-20T07:42:51.647Z,82.28
2023-03-20T07:43:36.422Z,82.28
2023-03-20T07:44:21.552Z,82.28
2023-03-20T07:45:06.686Z,82.28
2023-03-20T07:45:51.880Z,82.28
2023-03-20T07:46:36.877Z,82.28
2023-03-20T07:47:21.985Z,82.28
2023-03-20T07:48:07.449Z,82.28
2023-03-20T07:48:52.077Z,82.28
2023-03-20T07:49:37.175Z,82.28
2023-03-20T07:50:22.688Z,82.28
2023-03-20T07:51:07.013Z,82.28
2023-03-20T07:51:52.072Z,82.28
2023-03-20T07:52:37.381Z,82.28
2023-03-20T07:53:22.390Z,82.28
2023-03-20T07:54:07.296Z,82.28
2023-03-20T07:54:52.463Z,82.28
2023-03-20T07:55:37.649Z,82.28
2023-03-20T07:56:22.381Z,82.28
2023-03-20T07:57:07.357Z,82.28
2023-03-20T07:57:52.360Z,82.28
2023-03-20T07:58:37.330Z,82.28
2023-03-20T07:59:22.366Z,82.28
2023-03-20T08:00:07.710Z,82.28
2023-03-20T08:00:52.757Z,82.28
2023-03-20T08:01:37.864Z,82.28
2023-03-20T08:02:22.711Z,82.28
2023-03-20T08:03:07.886Z,82.28
2023-03-20T08:03:53.421Z,82.28
2023-03-20T08:04:38.199Z,82.28
2023-03-20T08:05:24.473Z,82.28
2023-03-20T08:06:08.182Z,82.28
2023-03-20T08:06:53.244Z,82.28
2023-03-20T08:07:38.300Z,82.28
2023-03-20T08:08:23.051Z,82.28
2023-03-20T08:09:08.319Z,82.28
2023-03-20T08:09:53.743Z,82.28
2023-03-20T08:10:38.526Z,82.28
2023-03-20T08:11:23.784Z,82.28
2023-03-20T08:12:08.436Z,82.28
2023-03-20T08:12:53.506Z,82.28
2023-03-20T08:13:38.809Z,82.28
2023-03-20T08:14:23.374Z,82.28
2023-03-20T08:15:08.706Z,82.28
2023-03-20T08:15:53.723Z,82.28
2023-03-20T08:16:39.013Z,82.28
2023-03-20T08:17:24.252Z,82.28
2023-03-20T08:18:09.312Z,82.28
2023-03-20T08:18:53.937Z,82.28
2023-03-20T08:19:39.775Z,82.28
2023-03-20T08:20:24.896Z,82.28
2023-03-20T08:21:08.742Z,82.28
2023-03-20T08:21:54.240Z,82.28
2023-03-20T08:22:39.246Z,82.28
2023-03-20T08:23:24.220Z,82.28
2023-03-20T08:24:09.434Z,82.28
2023-03-20T08:24:54.713Z,82.28
2023-03-20T08:25:39.560Z,82.28
2023-03-20T08:26:24.644Z,82.28
2023-03-20T08:27:09.467Z,82.28
2023-03-20T08:27:54.718Z,82.28
2023-03-20T08:28:47.138Z,82.28
2023-03-20T08:29:24.837Z,82.28
2023-03-20T08:30:10.607Z,82.28
2023-03-20T08:30:54.852Z,82.28
2023-03-20T08:31:39.809Z,82.28
2023-03-20T08:32:25.095Z,82.28
2023-03-20T08:33:10.363Z,82.28
2023-03-20T08:33:55.340Z,82.28
2023-03-20T08:34:40.228Z,82.28
2023-03-20T08:35:45.397Z,82.28
2023-03-20T08:36:10.659Z,82.28
2023-03-20T08:36:55.300Z,82.28
2023-03-20T08:37:40.353Z,82.28
2023-03-20T08:38:25.463Z,82.28
2023-03-20T08:39:10.473Z,82.28
2023-03-20T08:39:55.521Z,82.28
2023-03-20T08:40:40.511Z,82.28
2023-03-20T08:41:25.430Z,82.28
2023-03-20T08:42:10.732Z,82.28
2023-03-20T08:42:55.684Z,82.28
2023-03-20T08:43:40.948Z,82.28
2023-03-20T08:44:25.866Z,82.28
2023-03-20T08:45:11.163Z,82.28
2023-03-20T08:45:55.824Z,82.28
2023-03-20T08:46:41.150Z,82.28
2023-03-20T08:47:26.006Z,82.28
2023-03-20T08:48:11.167Z,82.28
2023-03-20T08:48:56.348Z,82.28
2023-03-20T08:49:41.152Z,82.28
2023-03-20T08:50:26.836Z,82.28
2023-03-20T08:51:11.436Z,82.28
2023-03-20T08:51:56.180Z,82.28
2023-03-20T08:52:41.442Z,82.28
2023-03-20T08:53:26.688Z,82.28
2023-03-20T08:54:11.525Z,82.28
2023-03-20T08:54:56.466Z,82.28
2023-03-20T08:55:41.484Z,82.28
2023-03-20T08:56:27.063Z,82.28
2023-03-20T08:57:11.624Z,82.28
2023-03-20T08:57:57.001Z,82.28
2023-03-20T08:58:42.087Z,82.28
2023-03-20T08:59:26.647Z,82.28
2023-03-20T09:00:12.053Z,82.28
2023-03-20T09:00:57.219Z,82.28
2023-03-20T09:01:48.846Z,82.28
2023-03-20T09:02:26.958Z,82.28
2023-03-20T09:03:12.181Z,82.28
2023-03-20T09:03:57.234Z,82.28
2023-03-20T09:04:42.118Z,82.28
2023-03-20T09:05:27.753Z,82.28
2023-03-20T09:06:12.402Z,82.28
2023-03-20T09:06:57.540Z,82.28
2023-03-20T09:07:42.211Z,82.28
2023-03-20T09:08:27.311Z,82.28
2023-03-20T09:09:12.411Z,82.28
2023-03-20T09:09:57.259Z,82.28
2023-03-20T09:10:42.628Z,82.28
2023-03-20T09:11:27.815Z,82.28
2023-03-20T09:12:12.768Z,82.28
2023-03-20T09:12:57.485Z,82.28
2023-03-20T09:13:43.019Z,82.28
2023-03-20T09:14:27.853Z,82.28
2023-03-20T09:15:12.711Z,82.28
2023-03-20T09:15:58.258Z,82.28
2023-03-20T09:16:43.285Z,82.28
2023-03-20T09:17:28.159Z,82.28
2023-03-20T09:18:13.088Z,82.28
2023-03-20T09:18:58.347Z,82.28
2023-03-20T09:19:43.300Z,82.28
2023-03-20T09:20:29.056Z,82.28
2023-03-20T09:21:13.316Z,82.28
2023-03-20T09:21:58.380Z,82.28
2023-03-20T09:22:43.642Z,82.28
2023-03-20T09:23:28.381Z,82.28
2023-03-20T09:24:13.482Z,82.28
2023-03-20T09:24:58.246Z,82.28
2023-03-20T09:25:43.770Z,82.28
2023-03-20T09:26:28.608Z,82.28
2023-03-20T09:27:13.560Z,82.28
2023-03-20T09:27:58.664Z,82.28
2023-03-20T09:28:43.989Z,82.28
2023-03-20T09:29:31.623Z,82.28
2023-03-20T09:30:13.785Z,82.28
2023-03-20T09:30:58.982Z,82.28
2023-03-20T09:31:44.360Z,82.28
2023-03-20T09:32:29.057Z,82.28
2023-03-20T09:33:14.159Z,82.28
2023-03-20T09:33:59.206Z,82.28
2023-03-20T09:34:44.645Z,82.28
2023-03-20T09:35:29.294Z,82.28
2023-03-20T09:36:14.384Z,82.28
2023-03-20T09:36:59.774Z,82.28
2023-03-20T09:37:44.174Z,82.28